createdAt,value
2022-08-20T00:01:40.043Z,2.22
2022-08-20T00:04:10.361Z,2.63
2022-08-20T00:06:42.343Z,2.58
2022-08-20T00:09:12.406Z,2.90
2022-08-20T00:11:42.372Z,2.95
2022-08-20T00:14:12.229Z,2.92
2022-08-20T00:16:41.974Z,2.67
2022-08-20T00:19:12.081Z,2.58
2022-08-20T00:24:11.710Z,0.90
2022-08-20T00:26:51.777Z,1.42
2022-08-20T00:29:22.797Z,2.40
2022-08-20T00:31:52.818Z,1.95
2022-08-20T00:34:22.626Z,2.03
2022-08-20T00:36:52.402Z,1.65
2022-08-20T00:39:22.237Z,1.10
2022-08-20T00:41:53.129Z,1.08
2022-08-20T00:44:24.344Z,2.95
2022-08-20T00:46:55.957Z,4.18
2022-08-20T00:49:29.562Z,4.20
2022-08-20T00:52:09.191Z,4.63
2022-08-20T00:54:48.403Z,3.28
2022-08-20T00:57:44.515Z,3.08
2022-08-20T01:00:29.097Z,2.90
2022-08-20T01:03:01.693Z,4.22
2022-08-20T01:05:32.366Z,3.47
2022-08-20T01:08:07.080Z,2.80
2022-08-20T01:10:43.165Z,3.03
2022-08-20T01:13:41.076Z,2.38
2022-08-20T01:16:28.138Z,2.28
2022-08-20T01:19:29.476Z,1.55
2022-08-20T01:26:39.914Z,0.77
2022-08-20T01:29:26.580Z,0.93
2022-08-20T01:39:08.447Z,2.15
2022-08-20T01:41:41.556Z,1.65
2022-08-20T01:44:34.737Z,1.10
2022-08-20T01:47:50.699Z,1.38
2022-08-20T01:50:45.619Z,2.38
2022-08-20T01:53:35.744Z,3.78
2022-08-20T02:00:44.687Z,2.03
2022-08-20T02:03:44.414Z,1.90
2022-08-20T02:06:56.170Z,1.77
2022-08-20T02:09:55.939Z,2.33
2022-08-20T02:15:39.821Z,1.65
2022-08-20T02:18:16.596Z,1.30
2022-08-20T02:20:47.355Z,1.38
2022-08-20T02:23:17.909Z,1.60
2022-08-20T02:25:49.545Z,1.38
2022-08-20T02:28:21.798Z,1.20
2022-08-20T02:30:56.823Z,1.40
2022-08-20T02:33:27.048Z,1.10
2022-08-20T02:35:57.610Z,0.70
2022-08-20T02:38:27.796Z,0.65
2022-08-20T02:40:57.521Z,0.80
2022-08-20T02:43:27.260Z,0.60
2022-08-20T02:45:56.979Z,0.73
2022-08-20T02:48:27.877Z,0.70
2022-08-20T02:51:06.208Z,0.60
2022-08-20T02:53:42.861Z,0.70
2022-08-20T02:58:43.211Z,0.70
2022-08-20T03:01:16.168Z,0.63
2022-08-20T03:03:47.122Z,0.60
2022-08-20T03:06:17.736Z,0.50
2022-08-20T03:08:47.504Z,0.40
2022-08-20T03:11:17.661Z,0.50
2022-08-20T03:16:17.824Z,0.40
2022-08-20T03:18:49.203Z,0.63
2022-08-20T03:21:22.273Z,0.73
2022-08-20T03:23:52.039Z,0.88
2022-08-20T03:26:22.032Z,0.40
2022-08-20T03:28:51.891Z,0.52
2022-08-20T03:31:22.210Z,0.45
2022-08-20T03:33:53.466Z,0.50
2022-08-20T03:36:28.074Z,0.57
2022-08-20T03:39:00.534Z,0.80
2022-08-20T03:41:33.281Z,0.55
2022-08-20T03:44:03.150Z,0.50
2022-08-20T03:46:32.878Z,0.55
2022-08-20T03:49:02.752Z,0.50
2022-08-20T03:51:51.460Z,0.43
2022-08-20T03:54:23.629Z,0.47
2022-08-20T03:56:57.991Z,0.35
2022-08-20T03:59:28.368Z,0.50
2022-08-20T04:01:58.326Z,0.70
2022-08-20T04:04:28.565Z,0.70
2022-08-20T04:06:58.285Z,0.40
2022-08-20T04:09:28.341Z,0.60
2022-08-20T04:12:01.328Z,0.43
2022-08-20T04:14:31.508Z,0.40
2022-08-20T04:17:07.525Z,0.85
2022-08-20T04:19:40.648Z,0.45
2022-08-20T04:22:10.594Z,0.60
2022-08-20T04:24:40.289Z,0.28
2022-08-20T04:27:10.664Z,0.52
2022-08-20T04:29:44.289Z,0.40
2022-08-20T04:32:15.128Z,0.60
2022-08-20T04:34:48.608Z,0.55
2022-08-20T04:37:22.699Z,0.50
2022-08-20T04:40:12.938Z,0.30
2022-08-20T04:42:43.561Z,0.68
2022-08-20T04:47:42.955Z,0.28
2022-08-20T04:50:15.054Z,0.25
2022-08-20T04:52:45.206Z,0.20
2022-08-20T04:55:14.999Z,0.22
2022-08-20T04:57:45.576Z,0.63
2022-08-20T05:00:18.443Z,0.50
2022-08-20T05:02:48.754Z,0.50
2022-08-20T05:05:18.456Z,0.57
2022-08-20T05:07:48.454Z,0.60
2022-08-20T05:10:21.079Z,0.30
2022-08-20T05:12:55.630Z,0.50
2022-08-20T05:18:01.596Z,0.68
2022-08-20T05:20:33.254Z,0.60
2022-08-20T05:23:04.430Z,0.32
2022-08-20T05:25:35.949Z,0.43
2022-08-20T05:28:10.951Z,0.70
2022-08-20T05:30:44.079Z,0.60
2022-08-20T05:33:20.992Z,0.30
2022-08-20T05:35:53.883Z,0.50
2022-08-20T05:38:27.590Z,0.68
2022-08-20T05:40:57.859Z,0.75
2022-08-20T05:43:27.830Z,0.70
2022-08-20T05:45:59.583Z,0.80
2022-08-20T05:48:31.506Z,0.43
2022-08-20T05:51:01.877Z,0.70
2022-08-20T05:53:32.013Z,0.90
2022-08-20T05:56:03.139Z,0.60
2022-08-20T05:58:34.121Z,0.22
2022-08-20T06:01:04.197Z,0.60
2022-08-20T06:03:52.073Z,0.45
2022-08-20T06:06:45.020Z,0.70
2022-08-20T06:09:12.592Z,0.93
2022-08-20T06:11:42.303Z,1.00
2022-08-20T06:14:12.070Z,0.90
2022-08-20T06:16:50.396Z,0.80
2022-08-20T06:19:32.267Z,0.90
2022-08-20T06:22:08.730Z,0.60
2022-08-20T06:24:50.877Z,0.90
2022-08-20T06:27:22.051Z,0.57
2022-08-20T06:29:52.733Z,1.20
2022-08-20T06:32:31.751Z,0.70
2022-08-20T06:35:09.396Z,0.43
2022-08-20T06:37:40.967Z,0.63
2022-08-20T06:40:20.801Z,0.98
2022-08-20T06:42:52.436Z,0.90
2022-08-20T06:45:27.055Z,0.73
2022-08-20T06:47:59.704Z,0.88
2022-08-20T06:50:47.503Z,0.75
2022-08-20T06:53:20.288Z,0.95
2022-08-20T06:55:57.147Z,0.50
2022-08-20T06:58:37.191Z,0.80
2022-08-20T07:01:11.101Z,0.90
2022-08-20T07:03:54.927Z,1.00
2022-08-20T07:06:27.110Z,1.23
2022-08-20T07:08:57.426Z,1.10
2022-08-20T07:11:28.435Z,0.90
2022-08-20T07:14:00.127Z,0.95
2022-08-20T07:16:30.197Z,1.25
2022-08-20T07:19:00.059Z,1.23
2022-08-20T07:21:31.503Z,1.17
2022-08-20T07:24:01.725Z,1.35
2022-08-20T07:26:31.452Z,1.30
2022-08-20T07:29:01.416Z,1.48
2022-08-20T07:31:49.519Z,1.30
2022-08-20T07:36:49.956Z,1.67
2022-08-20T07:39:20.498Z,1.00
2022-08-20T07:42:04.105Z,1.00
2022-08-20T07:44:33.992Z,1.35
2022-08-20T07:47:06.644Z,1.40
2022-08-20T07:49:39.992Z,1.20
2022-08-20T07:52:10.708Z,1.25
2022-08-20T07:54:41.075Z,1.20
2022-08-20T07:57:12.576Z,1.00
2022-08-20T07:59:42.437Z,1.63
2022-08-20T08:02:12.154Z,1.02
2022-08-20T08:07:11.747Z,0.93
2022-08-20T08:09:41.701Z,1.50
2022-08-20T08:12:14.113Z,0.90
2022-08-20T08:14:47.317Z,1.15
2022-08-20T08:17:19.693Z,1.38
2022-08-20T08:19:52.568Z,0.70
2022-08-20T08:22:22.802Z,1.13
2022-08-20T08:24:57.437Z,0.95
2022-08-20T08:27:27.991Z,1.17
2022-08-20T08:30:02.677Z,0.82
2022-08-20T08:32:33.494Z,1.17
2022-08-20T08:35:08.630Z,1.10
2022-08-20T08:37:39.296Z,1.00
2022-08-20T08:40:10.182Z,1.08
2022-08-20T08:42:49.332Z,0.85
2022-08-20T08:45:20.885Z,1.10
2022-08-20T08:47:51.224Z,0.85
2022-08-20T08:50:50.105Z,1.02
2022-08-20T08:53:34.799Z,1.98
2022-08-20T08:56:09.019Z,1.73
2022-08-20T08:58:39.436Z,2.03
2022-08-20T09:01:56.277Z,2.45
2022-08-20T09:04:21.725Z,2.05
2022-08-20T09:06:56.571Z,2.50
2022-08-20T09:09:31.079Z,1.75
2022-08-20T09:12:16.346Z,1.70
2022-08-20T09:14:49.062Z,1.50
2022-08-20T09:17:20.828Z,1.88
2022-08-20T09:19:53.261Z,1.48
2022-08-20T09:22:27.070Z,2.08
2022-08-20T09:24:57.450Z,1.70
2022-08-20T09:27:27.164Z,1.65
2022-08-20T09:29:56.953Z,1.70
2022-08-20T09:32:27.128Z,1.65
2022-08-20T09:37:33.686Z,1.42
2022-08-20T09:40:11.003Z,1.30
2022-08-20T09:42:41.869Z,1.77
2022-08-20T09:45:13.513Z,1.75
2022-08-20T09:47:56.229Z,1.60
2022-08-20T09:50:30.164Z,1.48
2022-08-20T09:53:02.521Z,1.40
2022-08-20T09:55:47.230Z,1.48
2022-08-20T09:58:40.191Z,1.45
2022-08-20T10:01:16.083Z,1.08
2022-08-20T10:03:49.862Z,1.00
2022-08-20T10:06:21.407Z,1.40
2022-08-20T10:08:52.168Z,1.50
2022-08-20T10:11:22.303Z,1.38
2022-08-20T10:13:52.220Z,1.10
2022-08-20T10:16:21.969Z,1.30
2022-08-20T10:18:51.690Z,1.23
2022-08-20T10:21:21.914Z,1.40
2022-08-20T10:23:51.910Z,1.80
2022-08-20T10:26:21.990Z,2.25
2022-08-20T10:28:51.845Z,1.77
2022-08-20T10:31:22.004Z,1.70
2022-08-20T10:36:21.247Z,2.05
2022-08-20T10:38:51.416Z,2.03
2022-08-20T10:41:22.513Z,2.60
2022-08-20T10:43:52.657Z,2.40
2022-08-20T10:46:22.355Z,2.33
2022-08-20T10:48:52.128Z,4.45
2022-08-20T10:51:21.885Z,2.28
2022-08-20T10:54:02.664Z,2.40
2022-08-20T10:56:38.272Z,2.30
2022-08-20T10:59:08.178Z,2.22
2022-08-20T11:01:38.190Z,2.90
2022-08-20T11:06:37.180Z,2.95
2022-08-20T11:09:06.926Z,2.72
2022-08-20T11:11:40.013Z,2.72
2022-08-20T11:14:09.773Z,10.68
2022-08-20T11:16:39.535Z,2.70
2022-08-20T11:19:09.239Z,2.47
2022-08-20T11:21:38.956Z,1.88
2022-08-20T11:24:08.825Z,2.85
2022-08-20T11:26:38.714Z,1.83
2022-08-20T11:31:37.589Z,2.35
2022-08-20T11:36:42.963Z,1.60
2022-08-20T11:39:13.267Z,1.70
2022-08-20T11:41:43.820Z,1.73
2022-08-20T11:44:20.886Z,1.92
2022-08-20T11:46:51.706Z,1.92
2022-08-20T11:49:21.598Z,2.05
2022-08-20T11:51:51.350Z,1.67
2022-08-20T11:54:21.109Z,1.50
2022-08-20T11:56:51.706Z,1.90
2022-08-20T11:59:22.087Z,1.70
2022-08-20T12:02:03.161Z,1.80
2022-08-20T12:04:35.007Z,2.03
2022-08-20T12:07:19.638Z,2.03
2022-08-20T12:09:51.062Z,1.65
2022-08-20T12:12:25.052Z,1.02
2022-08-20T12:14:56.827Z,1.70
2022-08-20T12:17:30.808Z,1.92
2022-08-20T12:20:05.040Z,1.30
2022-08-20T12:22:35.453Z,1.13
2022-08-20T12:25:07.255Z,1.40
2022-08-20T12:27:39.025Z,1.20
2022-08-20T12:30:16.505Z,1.35
2022-08-20T12:32:46.439Z,1.20
2022-08-20T12:35:18.214Z,1.08
2022-08-20T12:37:48.569Z,1.90
2022-08-20T12:40:30.827Z,1.30
2022-08-20T12:43:04.101Z,1.27
2022-08-20T12:45:37.129Z,1.30
2022-08-20T12:48:10.915Z,1.80
2022-08-20T12:50:43.576Z,1.70
2022-08-20T12:53:13.909Z,1.20
2022-08-20T12:55:43.807Z,1.50
2022-08-20T12:58:13.616Z,1.85
2022-08-20T13:00:50.344Z,1.55
2022-08-20T13:03:22.496Z,1.88
2022-08-20T13:05:52.723Z,1.88
2022-08-20T13:08:22.471Z,1.58
2022-08-20T13:10:53.264Z,1.77
2022-08-20T13:13:23.876Z,1.80
2022-08-20T13:15:54.006Z,3.55
2022-08-20T13:18:24.032Z,1.80
2022-08-20T13:20:53.839Z,2.00
2022-08-20T13:23:23.611Z,1.50
2022-08-20T13:25:53.639Z,1.63
2022-08-20T13:28:23.457Z,1.15
2022-08-20T13:30:53.209Z,1.67
2022-08-20T13:33:23.290Z,2.45
2022-08-20T13:35:53.018Z,1.50
2022-08-20T13:38:23.032Z,1.83
2022-08-20T13:40:54.937Z,1.30
2022-08-20T13:43:25.561Z,1.80
2022-08-20T13:45:56.090Z,1.30
2022-08-20T13:48:26.566Z,1.42
2022-08-20T13:50:56.382Z,1.50
2022-08-20T13:53:26.751Z,1.30
2022-08-20T13:55:57.526Z,1.40
2022-08-20T13:58:27.478Z,2.00
2022-08-20T14:00:57.376Z,1.42
2022-08-20T14:03:27.207Z,1.20
2022-08-20T14:05:58.434Z,1.50
2022-08-20T14:08:28.892Z,1.20
2022-08-20T14:11:00.191Z,1.55
2022-08-20T14:13:32.741Z,1.67
2022-08-20T14:16:02.663Z,1.30
2022-08-20T14:18:32.662Z,1.10
2022-08-20T14:21:03.226Z,1.33
2022-08-20T14:23:33.031Z,1.08
2022-08-20T14:26:07.245Z,1.00
2022-08-20T14:28:37.251Z,1.08
2022-08-20T14:31:07.121Z,1.10
2022-08-20T14:33:39.327Z,1.10
2022-08-20T14:36:12.769Z,1.00
2022-08-20T14:38:46.836Z,0.93
2022-08-20T14:41:17.381Z,0.90
2022-08-20T14:43:47.221Z,0.80
2022-08-20T14:46:18.482Z,0.93
2022-08-20T14:48:53.515Z,1.00
2022-08-20T14:51:24.444Z,1.02
2022-08-20T14:53:54.403Z,1.02
2022-08-20T14:56:24.359Z,1.48
2022-08-20T14:58:54.117Z,0.70
2022-08-20T15:01:25.298Z,0.80
2022-08-20T15:03:57.481Z,0.98
2022-08-20T15:06:36.644Z,0.80
2022-08-20T15:09:08.823Z,0.77
2022-08-20T15:11:41.075Z,0.70
2022-08-20T15:14:15.150Z,0.90
2022-08-20T15:16:49.712Z,0.65
2022-08-20T15:19:19.938Z,0.70
2022-08-20T15:21:50.173Z,0.80
2022-08-20T15:24:19.913Z,0.63
2022-08-20T15:26:49.806Z,0.55
2022-08-20T15:29:22.753Z,0.65
2022-08-20T15:31:53.664Z,0.60
2022-08-20T15:34:23.525Z,0.60
2022-08-20T15:36:53.368Z,0.80
2022-08-20T15:39:23.339Z,0.80
2022-08-20T15:41:53.085Z,0.60
2022-08-20T15:44:23.652Z,0.93
2022-08-20T15:46:53.826Z,0.90
2022-08-20T15:49:25.351Z,1.25
2022-08-20T15:51:55.604Z,0.73
2022-08-20T15:54:28.037Z,0.63
2022-08-20T15:57:33.187Z,2.65
2022-08-20T16:00:13.950Z,1.00
2022-08-20T16:02:53.794Z,0.68
2022-08-20T16:05:50.244Z,0.90
2022-08-20T16:08:38.307Z,1.00
2022-08-20T16:11:34.221Z,0.65
2022-08-20T16:14:18.102Z,0.70
2022-08-20T16:17:01.179Z,0.50
2022-08-20T16:19:55.862Z,0.60
2022-08-20T16:22:31.304Z,0.73
2022-08-20T16:25:02.136Z,0.50
2022-08-20T16:28:04.730Z,0.52
2022-08-20T16:30:50.017Z,0.70
2022-08-20T16:33:43.153Z,1.13
2022-08-20T16:36:26.485Z,0.60
2022-08-20T16:39:06.421Z,0.50
2022-08-20T16:41:41.131Z,0.60
2022-08-20T16:44:35.164Z,1.00
2022-08-20T16:47:13.952Z,0.90
2022-08-20T16:50:12.669Z,1.90
2022-08-20T16:52:46.644Z,0.70
2022-08-20T16:55:17.495Z,5.80
2022-08-20T16:57:49.421Z,6.18
2022-08-20T17:00:40.896Z,0.73
2022-08-20T17:03:39.135Z,0.50
2022-08-20T17:06:49.391Z,0.80
2022-08-20T17:09:36.045Z,0.80
2022-08-20T17:12:26.683Z,0.80
2022-08-20T17:14:59.458Z,6.45
2022-08-20T17:17:33.526Z,4.70
2022-08-20T17:20:20.490Z,1.20
2022-08-20T17:23:05.874Z,1.75
2022-08-20T17:25:40.897Z,1.20
2022-08-20T17:28:20.718Z,0.90
2022-08-20T17:30:51.248Z,1.10
2022-08-20T17:33:38.775Z,0.80
2022-08-20T17:38:58.568Z,0.68
2022-08-20T17:41:36.984Z,3.42
2022-08-20T17:44:14.165Z,0.82
2022-08-20T17:46:47.595Z,2.42
2022-08-20T17:49:35.127Z,3.47
2022-08-20T17:52:13.246Z,0.70
2022-08-20T17:54:46.631Z,0.65
2022-08-20T17:57:19.965Z,0.65
2022-08-20T18:00:01.356Z,0.70
2022-08-20T18:02:35.773Z,0.55
2022-08-20T18:05:14.499Z,0.88
2022-08-20T18:08:05.743Z,0.82
2022-08-20T18:11:01.056Z,1.27
2022-08-20T18:14:01.931Z,0.70
2022-08-20T18:16:43.978Z,0.60
2022-08-20T18:19:34.497Z,0.63
2022-08-20T18:22:12.367Z,0.60
2022-08-20T18:24:46.383Z,0.80
2022-08-20T18:27:21.239Z,0.73
2022-08-20T18:30:03.387Z,0.70
2022-08-20T18:32:39.623Z,0.70
2022-08-20T18:35:21.490Z,0.60
2022-08-20T18:37:51.776Z,0.70
2022-08-20T18:40:31.324Z,0.52
2022-08-20T18:43:15.302Z,0.55
2022-08-20T18:48:25.038Z,0.65
2022-08-20T18:50:58.272Z,0.70
2022-08-20T18:53:34.389Z,0.82
2022-08-20T18:56:09.931Z,0.63
2022-08-20T18:59:14.498Z,0.80
2022-08-20T19:01:47.439Z,0.90
2022-08-20T19:04:29.522Z,0.85
2022-08-20T19:07:07.539Z,0.95
2022-08-20T19:10:15.336Z,0.80
2022-08-20T19:13:13.092Z,0.88
2022-08-20T19:15:53.374Z,0.50
2022-08-20T19:18:32.519Z,0.80
2022-08-20T19:21:05.119Z,0.80
2022-08-20T19:23:52.503Z,0.80
2022-08-20T19:26:26.204Z,0.90
2022-08-20T19:29:01.220Z,0.60
2022-08-20T19:31:34.535Z,0.77
2022-08-20T19:34:21.631Z,1.00
2022-08-20T19:39:29.777Z,1.15
2022-08-20T19:42:21.879Z,0.70
2022-08-20T19:45:06.081Z,1.58
2022-08-20T19:47:38.474Z,0.80
2022-08-20T19:50:49.752Z,0.68
2022-08-20T19:53:30.488Z,0.82
2022-08-20T19:56:09.457Z,1.10
2022-08-20T19:58:40.011Z,1.10
2022-08-20T20:01:23.228Z,0.85
2022-08-20T20:04:01.794Z,0.90
2022-08-20T20:06:39.635Z,1.02
2022-08-20T20:09:30.960Z,0.77
2022-08-20T20:12:05.276Z,0.93
2022-08-20T20:14:37.989Z,0.80
2022-08-20T20:17:09.915Z,1.58
2022-08-20T20:20:01.190Z,1.02
2022-08-20T20:22:48.205Z,1.02
2022-08-20T20:25:26.046Z,1.08
2022-08-20T20:27:59.924Z,0.93
2022-08-20T20:30:33.369Z,0.55
2022-08-20T20:33:12.905Z,0.82
2022-08-20T20:35:44.930Z,1.00
2022-08-20T20:38:29.525Z,1.08
2022-08-20T20:41:02.349Z,0.90
2022-08-20T20:43:44.112Z,1.02
2022-08-20T20:46:29.033Z,1.02
2022-08-20T20:49:10.380Z,1.02
2022-08-20T20:51:54.530Z,0.80
2022-08-20T20:54:33.410Z,0.70
2022-08-20T20:57:10.235Z,0.85
2022-08-20T20:59:40.408Z,0.85
2022-08-20T21:02:11.176Z,0.98
2022-08-20T21:04:42.783Z,0.63
2022-08-20T21:07:16.845Z,1.13
2022-08-20T21:09:47.254Z,0.70
2022-08-20T21:12:17.816Z,0.45
2022-08-20T21:14:48.138Z,1.00
2022-08-20T21:17:23.926Z,0.73
2022-08-20T21:22:23.999Z,0.90
2022-08-20T21:24:54.171Z,0.60
2022-08-20T21:29:56.491Z,0.90
2022-08-20T21:32:29.378Z,1.17
2022-08-20T21:34:59.542Z,0.60
2022-08-20T21:39:59.758Z,0.70
2022-08-20T21:42:30.952Z,1.10
2022-08-20T21:45:01.791Z,0.90
2022-08-20T21:47:32.201Z,1.25
2022-08-20T21:50:02.002Z,1.10
2022-08-20T21:52:31.762Z,0.90
2022-08-20T21:55:01.520Z,1.10
2022-08-20T21:57:34.784Z,0.60
2022-08-20T22:00:22.437Z,0.80
2022-08-20T22:02:52.533Z,0.77
2022-08-20T22:05:22.694Z,0.80
2022-08-20T22:07:52.444Z,0.80
2022-08-20T22:10:22.605Z,0.80
2022-08-20T22:12:52.415Z,0.70
2022-08-20T22:15:22.394Z,1.45
2022-08-20T22:20:21.429Z,0.80
2022-08-20T22:25:20.694Z,0.68
2022-08-20T22:27:50.764Z,0.95
2022-08-20T22:30:20.656Z,0.70
2022-08-20T22:35:33.444Z,0.85
2022-08-20T22:38:03.804Z,0.85
2022-08-20T22:40:33.580Z,1.05
2022-08-20T22:43:03.688Z,1.35
2022-08-20T22:48:04.085Z,0.93
2022-08-20T22:50:33.957Z,1.00
2022-08-20T22:55:34.033Z,0.70
2022-08-20T22:58:03.862Z,0.90
2022-08-20T23:00:36.663Z,0.90
2022-08-20T23:03:07.528Z,1.00
2022-08-20T23:05:38.953Z,3.10
2022-08-20T23:08:09.539Z,1.95
2022-08-20T23:10:40.526Z,5.18
2022-08-20T23:13:10.434Z,5.63
2022-08-20T23:18:18.828Z,4.25
2022-08-20T23:20:54.372Z,2.83
2022-08-20T23:23:25.704Z,2.70
2022-08-20T23:25:56.621Z,2.25
2022-08-20T23:28:27.856Z,2.90
2022-08-20T23:30:58.131Z,2.22
2022-08-20T23:33:27.887Z,1.77
2022-08-20T23:35:58.060Z,2.25
2022-08-20T23:38:27.820Z,2.03
2022-08-20T23:41:02.154Z,1.10
2022-08-20T23:43:32.379Z,1.13
2022-08-20T23:46:05.716Z,1.20
2022-08-20T23:48:36.709Z,1.10
2022-08-20T23:51:06.833Z,1.58
2022-08-20T23:53:36.692Z,1.30
2022-08-20T23:56:06.857Z,1.90
2022-08-20T23:58:36.624Z,2.72
